Time;durP1;ratioP1;P1;durP2;ratioP2;P2;SDS_P1;SDS_P2;PMS_P1;PMS_P2;Temp;Humidity;BMP_temperature;BMP_pressure;BME280_temperature;BME280_humidity;BME280_pressure;Samples;Min_cycle;Max_cycle;Signal;HPM_P1;HPM_P2
2023/09/09 00:01:13;;;;;;;6.50;6.00;;;25.00;90.70;;;;;;6186375;23;20402;-89
2023/09/09 00:03:39;;;;;;;6.20;5.60;;;25.00;90.70;;;;;;6186305;23;20403;-89
2023/09/09 00:06:12;;;;;;;8.83;6.57;;;25.00;90.70;;;;;;6185867;23;20437;-89
2023/09/09 00:08:39;;;;;;;6.20;5.70;;;25.00;90.70;;;;;;6185400;23;20493;-90
2023/09/09 00:11:06;;;;;;;6.30;5.63;;;25.00;90.70;;;;;;6185850;23;20453;-89
2023/09/09 00:13:33;;;;;;;6.20;5.70;;;25.00;90.70;;;;;;6186138;23;20489;-89
2023/09/09 00:15:59;;;;;;;6.60;5.97;;;25.00;90.70;;;;;;6185712;23;20406;-90
2023/09/09 00:18:26;;;;;;;5.73;5.30;;;25.00;90.70;;;;;;6186187;23;20409;-89
2023/09/09 00:20:53;;;;;;;10.03;5.13;;;25.00;90.70;;;;;;6186230;23;20796;-89
2023/09/09 00:23:21;;;;;;;5.87;5.37;;;25.00;90.70;;;;;;6185559;23;20434;-90
2023/09/09 00:25:48;;;;;;;5.47;4.97;;;25.00;90.60;;;;;;6185894;23;20481;-90
2023/09/09 00:28:15;;;;;;;6.27;5.67;;;25.00;90.60;;;;;;6186071;23;20482;-89
2023/09/09 00:30:42;;;;;;;6.07;5.57;;;25.00;90.60;;;;;;6186060;23;20732;-89
2023/09/09 00:33:10;;;;;;;5.57;5.10;;;25.00;90.60;;;;;;6185918;23;20478;-89
2023/09/09 00:35:38;;;;;;;6.23;5.17;;;25.00;90.60;;;;;;6185727;23;20740;-90
2023/09/09 00:38:05;;;;;;;6.57;5.97;;;25.00;90.60;;;;;;6185975;23;20481;-90
2023/09/09 00:40:33;;;;;;;5.90;5.30;;;25.10;90.70;;;;;;6185812;23;20430;-90
2023/09/09 00:43:00;;;;;;;5.33;4.83;;;25.00;90.60;;;;;;6185920;23;20402;-90
2023/09/09 00:45:27;;;;;;;5.40;4.90;;;25.00;90.60;;;;;;6186026;23;20498;-90
2023/09/09 00:47:54;;;;;;;6.10;5.50;;;25.00;90.60;;;;;;6186047;23;20752;-89
2023/09/09 00:50:21;;;;;;;6.70;6.10;;;25.00;90.60;;;;;;6185731;23;20435;-89
2023/09/09 00:52:48;;;;;;;6.37;5.83;;;25.00;90.60;;;;;;6185749;23;20399;-90
2023/09/09 00:55:15;;;;;;;6.10;5.70;;;25.00;90.60;;;;;;6185738;23;20824;-89
2023/09/09 00:57:44;;;;;;;4.93;4.53;;;24.90;90.60;;;;;;6185588;23;20894;-90
2023/09/09 01:00:11;;;;;;;5.37;4.90;;;25.00;90.60;;;;;;6185687;23;20489;-89
2023/09/09 01:02:39;;;;;;;5.63;4.90;;;25.00;90.60;;;;;;6185850;23;20403;-90
2023/09/09 01:05:07;;;;;;;5.43;5.00;;;25.00;90.60;;;;;;6186034;23;20399;-90
2023/09/09 01:07:45;;;;;;;5.83;5.20;;;25.00;90.60;;;;;;6185906;23;20430;-90
2023/09/09 01:10:12;;;;;;;5.43;5.03;;;25.00;90.60;;;;;;6185700;23;20452;-90
2023/09/09 01:12:38;;;;;;;5.80;5.40;;;25.00;90.60;;;;;;6185762;23;20406;-89
2023/09/09 01:15:08;;;;;;;5.87;5.43;;;25.00;90.60;;;;;;6185952;23;20485;-90
2023/09/09 01:17:35;;;;;;;6.20;5.70;;;25.00;90.60;;;;;;6185618;23;20426;-89
2023/09/09 01:20:09;;;;;;;5.47;5.03;;;25.00;90.60;;;;;;6186423;23;20400;-89
2023/09/09 01:22:37;;;;;;;6.20;5.70;;;25.00;91.00;;;;;;6187752;23;20391;-89
2023/09/09 01:25:05;;;;;;;5.30;4.90;;;25.00;90.60;;;;;;6187801;23;20399;-89
2023/09/09 01:27:32;;;;;;;6.43;5.13;;;25.00;90.60;;;;;;6187380;23;20405;-89
2023/09/09 01:29:59;;;;;;;5.70;5.20;;;25.00;90.60;;;;;;6187034;23;20517;-89
2023/09/09 01:32:26;;;;;;;6.40;5.90;;;25.00;90.60;;;;;;6186689;23;20431;-89
2023/09/09 01:34:53;;;;;;;5.70;5.20;;;24.90;90.50;;;;;;6187036;23;20399;-89
2023/09/09 01:37:20;;;;;;;5.37;4.87;;;25.00;90.60;;;;;;6187304;23;20405;-89
2023/09/09 01:39:48;;;;;;;5.37;4.97;;;24.90;90.50;;;;;;6187110;23;21012;-89
2023/09/09 01:42:15;;;;;;;5.90;5.30;;;25.00;90.90;;;;;;6187439;23;20481;-89
2023/09/09 01:44:44;;;;;;;5.17;4.80;;;24.90;90.50;;;;;;6187443;23;20944;-90
2023/09/09 01:47:13;;;;;;;6.00;5.23;;;24.90;90.50;;;;;;6187190;23;20892;-90
2023/09/09 01:49:40;;;;;;;5.70;5.20;;;25.00;90.60;;;;;;6187143;23;20403;-89
2023/09/09 01:52:07;;;;;;;5.77;5.27;;;25.00;90.60;;;;;;6187620;23;20435;-89
2023/09/09 01:54:34;;;;;;;5.30;4.90;;;24.90;90.50;;;;;;6187249;23;20402;-90
2023/09/09 01:57:02;;;;;;;6.17;5.67;;;24.90;90.50;;;;;;6187181;23;20422;-89
2023/09/09 01:59:29;;;;;;;5.80;5.30;;;24.90;90.50;;;;;;6187308;23;20769;-90
2023/09/09 02:01:55;;;;;;;6.00;5.50;;;24.90;90.50;;;;;;6186999;23;20917;-89
2023/09/09 02:04:22;;;;;;;5.70;5.23;;;24.90;90.50;;;;;;6187080;23;20517;-89
2023/09/09 02:06:49;;;;;;;4.70;4.40;;;24.90;90.50;;;;;;6187836;23;20477;-90
2023/09/09 02:09:16;;;;;;;5.90;5.40;;;24.90;90.50;;;;;;6187322;23;20487;-90
2023/09/09 02:11:43;;;;;;;4.80;4.50;;;24.90;90.50;;;;;;6187137;23;20765;-89
2023/09/09 02:14:11;;;;;;;5.57;5.17;;;24.90;90.50;;;;;;6187396;23;20486;-90
2023/09/09 02:16:38;;;;;;;5.47;4.97;;;24.90;90.50;;;;;;6187049;23;20403;-90
2023/09/09 02:19:05;;;;;;;5.57;4.80;;;24.90;90.50;;;;;;6187017;23;20493;-89
2023/09/09 02:21:32;;;;;;;4.67;4.27;;;24.90;90.40;;;;;;6186828;23;20403;-90
2023/09/09 02:23:58;;;;;;;5.07;4.67;;;24.90;90.50;;;;;;6186966;23;20788;-89
2023/09/09 02:26:25;;;;;;;5.27;4.77;;;24.90;90.50;;;;;;6187234;23;20403;-89
2023/09/09 02:28:53;;;;;;;5.17;4.77;;;24.90;90.40;;;;;;6186722;23;20407;-89
2023/09/09 02:31:21;;;;;;;5.00;4.60;;;24.90;90.40;;;;;;6186028;23;20455;-90
2023/09/09 02:33:48;;;;;;;5.30;4.90;;;24.90;90.40;;;;;;6187172;23;20414;-90
2023/09/09 02:36:15;;;;;;;4.87;4.47;;;24.90;90.40;;;;;;6187018;23;20399;-90
2023/09/09 02:38:41;;;;;;;6.53;6.00;;;24.90;90.40;;;;;;6187031;23;20401;-90
2023/09/09 02:41:08;;;;;;;4.63;4.33;;;25.00;90.50;;;;;;6186774;23;20419;-90
2023/09/09 02:43:36;;;;;;;4.87;4.50;;;24.90;90.40;;;;;;6187077;23;20399;-89
2023/09/09 02:46:03;;;;;;;4.73;4.33;;;24.90;90.40;;;;;;6187787;23;20391;-90
2023/09/09 02:48:31;;;;;;;5.03;4.63;;;24.90;90.40;;;;;;6186813;23;20486;-90
2023/09/09 02:50:58;;;;;;;6.17;4.70;;;24.90;90.40;;;;;;6186887;23;20446;-90
2023/09/09 02:53:25;;;;;;;5.43;4.77;;;24.90;90.40;;;;;;6186937;23;20399;-89
2023/09/09 02:55:52;;;;;;;4.57;4.27;;;24.90;90.40;;;;;;6186599;23;20846;-90
2023/09/09 02:58:18;;;;;;;5.83;5.33;;;24.90;90.40;;;;;;6186849;23;20481;-89
2023/09/09 03:00:45;;;;;;;5.53;5.03;;;24.90;90.40;;;;;;6187013;23;20426;-89
2023/09/09 03:03:12;;;;;;;4.87;4.47;;;24.90;90.40;;;;;;6186987;23;20485;-89
2023/09/09 03:05:40;;;;;;;4.57;4.27;;;24.90;90.40;;;;;;6186395;23;20489;-90
2023/09/09 03:08:07;;;;;;;4.67;4.23;;;24.90;90.40;;;;;;6186947;23;20722;-89
2023/09/09 03:10:34;;;;;;;4.90;4.50;;;24.90;90.40;;;;;;6186120;23;20449;-90
2023/09/09 03:13:01;;;;;;;5.33;4.93;;;24.90;90.40;;;;;;6186555;23;20461;-90
2023/09/09 03:15:28;;;;;;;6.90;4.57;;;24.90;90.40;;;;;;6186606;23;20399;-90
2023/09/09 03:17:54;;;;;;;5.23;4.83;;;24.90;90.40;;;;;;6186901;23;20755;-90
2023/09/09 03:20:21;;;;;;;5.10;4.60;;;24.90;90.40;;;;;;6186699;23;20486;-90
2023/09/09 03:22:49;;;;;;;5.07;4.57;;;24.90;90.30;;;;;;6186864;23;20493;-90
2023/09/09 03:25:16;;;;;;;5.03;4.60;;;24.90;90.30;;;;;;6186781;23;20403;-89
2023/09/09 03:27:43;;;;;;;4.77;4.47;;;24.90;90.30;;;;;;6186309;23;20405;-90
2023/09/09 03:30:11;;;;;;;14.97;4.33;;;24.90;90.30;;;;;;6186304;23;20399;-89
2023/09/09 03:32:38;;;;;;;5.03;4.63;;;24.90;90.30;;;;;;6186272;23;20410;-90
2023/09/09 03:35:05;;;;;;;4.73;4.33;;;25.00;90.40;;;;;;6186616;23;20490;-90
2023/09/09 03:37:32;;;;;;;5.10;4.70;;;24.90;90.30;;;;;;6186274;23;20890;-89
2023/09/09 03:40:00;;;;;;;5.30;4.87;;;24.90;90.30;;;;;;6186340;23;20506;-89
2023/09/09 03:42:27;;;;;;;5.10;4.70;;;24.90;90.30;;;;;;6186350;23;20434;-90
2023/09/09 03:44:54;;;;;;;5.20;4.73;;;24.90;90.30;;;;;;6186543;23;20405;-90
2023/09/09 03:47:21;;;;;;;5.17;4.67;;;24.90;90.30;;;;;;6186602;23;20442;-90
2023/09/09 03:49:52;;;;;;;4.50;4.20;;;24.90;90.30;;;;;;6186292;23;20407;-90
2023/09/09 03:52:21;;;;;;;4.97;4.57;;;24.90;90.30;;;;;;6186507;23;20449;-89
2023/09/09 03:54:48;;;;;;;7.33;3.80;;;24.90;90.30;;;;;;6185904;23;20398;-90
2023/09/09 03:57:16;;;;;;;4.90;4.60;;;24.80;90.20;;;;;;6186206;23;20393;-89
2023/09/09 03:59:43;;;;;;;5.13;4.73;;;24.90;90.20;;;;;;6186339;23;20403;-89
2023/09/09 04:02:09;;;;;;;4.13;3.83;;;24.90;90.30;;;;;;6186013;23;20474;-89
2023/09/09 04:04:36;;;;;;;4.90;4.60;;;24.90;90.20;;;;;;6186231;23;20486;-90
2023/09/09 04:07:05;;;;;;;4.73;4.33;;;24.90;90.20;;;;;;6186277;23;20489;-90
2023/09/09 04:09:40;;;;;;;4.87;4.47;;;24.80;90.10;;;;;;6186050;23;20731;-90
2023/09/09 04:12:07;;;;;;;4.87;4.40;;;24.90;90.20;;;;;;6185812;23;20497;-90
2023/09/09 04:14:36;;;;;;;5.17;4.70;;;24.90;90.20;;;;;;6186085;23;20481;-89
2023/09/09 04:17:03;;;;;;;4.40;4.10;;;24.90;90.20;;;;;;6186347;23;20403;-89
2023/09/09 04:19:30;;;;;;;4.27;3.97;;;24.90;90.20;;;;;;6186219;23;20403;-90
2023/09/09 04:21:57;;;;;;;4.47;4.17;;;24.80;90.10;;;;;;6186074;23;20490;-90
2023/09/09 04:24:23;;;;;;;4.17;3.87;;;24.80;90.10;;;;;;6186078;23;20482;-89
2023/09/09 04:26:50;;;;;;;4.73;4.40;;;24.80;90.10;;;;;;6186252;23;20425;-90
2023/09/09 04:29:17;;;;;;;4.33;4.03;;;24.80;90.00;;;;;;6186051;23;20433;-90
2023/09/09 04:31:46;;;;;;;4.37;4.07;;;24.80;90.00;;;;;;6185974;23;20449;-90
2023/09/09 04:34:13;;;;;;;4.73;4.33;;;24.90;90.10;;;;;;6186272;23;20407;-90
2023/09/09 04:36:40;;;;;;;4.10;3.80;;;24.80;90.00;;;;;;6186194;23;20745;-89
2023/09/09 04:39:07;;;;;;;4.60;4.30;;;24.90;90.10;;;;;;6185472;23;20403;-90
2023/09/09 04:41:35;;;;;;;4.00;3.70;;;24.90;90.10;;;;;;6185715;23;20494;-89
2023/09/09 04:44:01;;;;;;;3.73;3.40;;;24.90;90.10;;;;;;6185697;23;20879;-89
2023/09/09 04:46:28;;;;;;;4.10;3.80;;;24.90;90.10;;;;;;6186015;23;20406;-89
2023/09/09 04:48:56;;;;;;;3.87;3.67;;;24.90;90.10;;;;;;6185952;23;20407;-89
2023/09/09 04:51:23;;;;;;;4.63;4.33;;;24.80;90.00;;;;;;6185563;23;20457;-89
2023/09/09 04:53:50;;;;;;;3.93;3.73;;;24.90;90.00;;;;;;6185768;23;20487;-90
2023/09/09 04:56:17;;;;;;;4.50;4.10;;;24.90;90.10;;;;;;6187483;23;20434;-90
2023/09/09 04:58:44;;;;;;;3.97;3.67;;;24.80;90.00;;;;;;6187470;23;20419;-90
2023/09/09 05:01:10;;;;;;;4.53;4.20;;;24.80;90.00;;;;;;6187979;23;20433;-90
2023/09/09 05:03:37;;;;;;;3.70;3.40;;;24.80;90.00;;;;;;6187683;23;20403;-89
2023/09/09 05:06:06;;;;;;;4.10;3.80;;;24.90;90.00;;;;;;6187652;23;20482;-90
2023/09/09 05:08:32;;;;;;;4.37;4.07;;;24.80;90.30;;;;;;6187589;23;20402;-90
2023/09/09 05:10:59;;;;;;;4.70;4.30;;;24.80;90.00;;;;;;6187436;23;20419;-89
2023/09/09 05:13:26;;;;;;;4.53;4.13;;;24.80;89.90;;;;;;6187687;23;20494;-90
2023/09/09 05:15:53;;;;;;;5.17;4.77;;;24.90;90.00;;;;;;6187687;23;20491;-89
2023/09/09 05:18:19;;;;;;;4.37;4.07;;;24.80;89.90;;;;;;6187903;23;20405;-89
2023/09/09 05:20:46;;;;;;;4.60;4.30;;;24.80;89.90;;;;;;6187906;23;20403;-89
2023/09/09 05:23:14;;;;;;;3.77;3.50;;;24.80;89.90;;;;;;6187526;23;20403;-90
2023/09/09 05:25:41;;;;;;;5.00;4.60;;;24.80;89.90;;;;;;6187811;23;20402;-90
2023/09/09 05:28:08;;;;;;;4.53;4.20;;;24.80;90.00;;;;;;6187494;23;20395;-90
2023/09/09 05:30:35;;;;;;;4.00;3.70;;;24.80;89.90;;;;;;6187914;23;20401;-90
2023/09/09 05:33:01;;;;;;;3.87;3.57;;;24.80;89.90;;;;;;6187665;23;20438;-89
2023/09/09 05:35:28;;;;;;;4.47;4.07;;;24.80;89.90;;;;;;6187735;23;20409;-90
2023/09/09 05:37:55;;;;;;;3.80;3.50;;;24.80;89.90;;;;;;6187567;23;20497;-90
2023/09/09 05:40:23;;;;;;;4.40;4.10;;;24.80;89.90;;;;;;6187617;23;20977;-89
2023/09/09 05:42:50;;;;;;;4.23;3.93;;;24.80;90.00;;;;;;6187723;23;20399;-90
2023/09/09 05:45:17;;;;;;;4.70;4.30;;;24.80;89.90;;;;;;6187553;23;20481;-89
2023/09/09 05:47:44;;;;;;;4.03;3.73;;;24.80;89.90;;;;;;6187186;23;20394;-89
2023/09/09 05:50:12;;;;;;;4.50;4.10;;;24.80;89.90;;;;;;6187269;23;20432;-90
2023/09/09 05:52:39;;;;;;;4.03;3.73;;;24.80;89.90;;;;;;6187556;23;20442;-90
2023/09/09 05:55:08;;;;;;;3.90;3.60;;;24.80;90.00;;;;;;6186952;23;20434;-89
2023/09/09 05:57:36;;;;;;;4.07;3.77;;;24.80;89.90;;;;;;6187463;23;20403;-89
2023/09/09 06:00:04;;;;;;;4.10;3.80;;;24.80;90.00;;;;;;6187530;23;20409;-90
2023/09/09 06:02:31;;;;;;;4.13;3.83;;;24.80;90.00;;;;;;6187417;23;20780;-89
2023/09/09 06:04:58;;;;;;;4.20;3.90;;;24.80;90.00;;;;;;6187434;23;20486;-89
2023/09/09 06:07:24;;;;;;;3.70;3.50;;;24.80;89.90;;;;;;6186684;23;20413;-89
2023/09/09 06:09:51;;;;;;;3.63;3.33;;;24.80;90.00;;;;;;6186927;23;20923;-90
2023/09/09 06:12:18;;;;;;;4.30;3.90;;;24.80;89.90;;;;;;6187339;23;20450;-89
2023/09/09 06:14:46;;;;;;;4.20;3.90;;;24.80;90.00;;;;;;6187081;23;20399;-89
2023/09/09 06:17:13;;;;;;;3.60;3.40;;;24.80;90.00;;;;;;6187060;23;20407;-90
2023/09/09 06:19:40;;;;;;;4.60;4.20;;;24.80;90.00;;;;;;6187180;23;20425;-89
2023/09/09 06:22:07;;;;;;;4.40;4.10;;;24.80;90.00;;;;;;6187367;23;20449;-89
2023/09/09 06:24:34;;;;;;;4.10;3.73;;;24.80;90.00;;;;;;6187703;23;20413;-89
2023/09/09 06:27:01;;;;;;;3.93;3.63;;;24.80;90.00;;;;;;6187046;23;20398;-89
2023/09/09 06:29:29;;;;;;;4.03;3.73;;;24.80;90.00;;;;;;6186766;23;20898;-90
2023/09/09 06:31:57;;;;;;;4.30;3.90;;;24.80;90.00;;;;;;6187210;23;20435;-90
2023/09/09 06:34:24;;;;;;;4.57;4.20;;;24.80;90.00;;;;;;6186986;23;20902;-89
2023/09/09 06:36:51;;;;;;;4.37;4.07;;;24.80;90.00;;;;;;6186918;23;20407;-90
2023/09/09 06:39:18;;;;;;;4.30;4.00;;;24.80;90.00;;;;;;6186718;23;20423;-90
2023/09/09 06:41:44;;;;;;;4.03;3.73;;;24.90;90.10;;;;;;6186862;23;20466;-89
2023/09/09 06:44:11;;;;;;;4.07;3.73;;;24.80;90.00;;;;;;6186965;23;20797;-90
2023/09/09 06:46:38;;;;;;;4.40;4.10;;;24.80;90.00;;;;;;6187239;23;20457;-90
2023/09/09 06:49:06;;;;;;;3.97;3.67;;;24.80;90.00;;;;;;6186674;23;20403;-89
2023/09/09 06:51:33;;;;;;;3.70;3.40;;;24.80;90.00;;;;;;6186929;23;20413;-89
2023/09/09 06:54:00;;;;;;;3.87;3.57;;;24.80;90.10;;;;;;6187301;23;20797;-89
2023/09/09 06:56:27;;;;;;;4.47;4.17;;;24.80;90.00;;;;;;6186446;23;20462;-89
2023/09/09 06:58:53;;;;;;;3.97;3.67;;;24.80;90.10;;;;;;6186923;23;20486;-89
2023/09/09 07:01:20;;;;;;;4.17;3.87;;;24.80;90.10;;;;;;6186718;23;20485;-95
2023/09/09 07:03:47;;;;;;;4.10;3.80;;;24.80;90.10;;;;;;6187167;23;20741;-94
2023/09/09 07:06:16;;;;;;;8.10;4.10;;;24.80;90.20;;;;;;6186492;23;20407;-94
2023/09/09 07:08:43;;;;;;;3.60;3.30;;;24.80;90.20;;;;;;6186313;23;20414;-93
2023/09/09 07:11:10;;;;;;;5.03;3.97;;;24.80;90.20;;;;;;6187282;23;20901;-94
2023/09/09 07:13:38;;;;;;;4.00;3.70;;;24.80;90.20;;;;;;6186738;23;20505;-94
2023/09/09 07:16:05;;;;;;;4.13;3.83;;;24.80;90.20;;;;;;6186896;23;20423;-94
2023/09/09 07:18:32;;;;;;;4.27;3.93;;;24.80;90.20;;;;;;6187096;23;20482;-93
2023/09/09 07:21:02;;;;;;;5.87;4.03;;;24.80;90.20;;;;;;6186424;23;20498;-93
2023/09/09 07:23:30;;;;;;;4.20;3.80;;;24.80;90.20;;;;;;6187118;23;20411;-94
2023/09/09 07:25:57;;;;;;;4.70;4.30;;;24.80;90.30;;;;;;6186734;23;20433;-94
2023/09/09 07:28:24;;;;;;;4.70;4.30;;;24.80;90.20;;;;;;6186589;23;20498;-93
2023/09/09 07:30:52;;;;;;;3.60;3.40;;;24.80;90.20;;;;;;6186622;23;20481;-93
2023/09/09 07:34:02;;;;;;;4.20;3.90;;;24.80;90.20;;;;;;6187725;23;20830;-96
2023/09/09 07:36:53;;;;;;;4.57;4.17;;;24.80;90.30;;;;;;6189703;23;20383;-96
2023/09/09 07:39:22;;;;;;;3.73;3.53;;;24.80;90.30;;;;;;6186389;23;20507;-94
2023/09/09 07:45:19;;;;;;;5.90;4.17;;;24.80;90.40;;;;;;6187974;23;20375;-96
2023/09/09 07:47:46;;;;;;;3.73;3.43;;;24.80;90.40;;;;;;6187161;23;20406;-94
2023/09/09 07:50:13;;;;;;;3.83;3.53;;;24.80;90.40;;;;;;6187100;23;20427;-94
2023/09/09 07:52:41;;;;;;;5.03;4.63;;;24.80;90.40;;;;;;6186207;23;20469;-94
2023/09/09 07:55:10;;;;;;;4.33;3.60;;;24.80;90.40;;;;;;6185983;23;20757;-93
2023/09/09 07:57:37;;;;;;;4.60;4.20;;;24.80;90.40;;;;;;6186309;23;20431;-95
2023/09/09 08:00:07;;;;;;;3.90;3.60;;;24.80;90.30;;;;;;6186516;23;20441;-93
2023/09/09 08:02:35;;;;;;;4.00;3.70;;;24.80;90.30;;;;;;6187039;23;20427;-92
2023/09/09 08:05:02;;;;;;;4.63;4.33;;;24.80;90.30;;;;;;6186070;23;20414;-92
2023/09/09 08:07:29;;;;;;;4.03;3.73;;;24.80;90.30;;;;;;6186630;23;20403;-93
2023/09/09 08:09:56;;;;;;;4.33;3.80;;;24.90;90.40;;;;;;6186271;23;20498;-93
2023/09/09 08:12:24;;;;;;;5.03;4.53;;;24.80;90.30;;;;;;6186852;23;20513;-93
2023/09/09 08:15:04;;;;;;;4.40;4.10;;;24.90;90.40;;;;;;6186038;23;20405;-93
2023/09/09 08:17:31;;;;;;;3.80;3.50;;;24.90;90.40;;;;;;6186091;23;20487;-90
2023/09/09 08:19:58;;;;;;;4.27;3.80;;;24.90;90.50;;;;;;6187284;23;20481;-90
2023/09/09 08:22:24;;;;;;;3.97;3.63;;;24.80;90.50;;;;;;6186807;23;20489;-90
2023/09/09 08:24:51;;;;;;;4.17;3.77;;;24.80;90.50;;;;;;6187795;23;20486;-90
2023/09/09 08:27:18;;;;;;;8.20;3.50;;;24.90;90.90;;;;;;6187193;23;20486;-90
2023/09/09 08:29:46;;;;;;;4.33;4.00;;;24.90;90.60;;;;;;6187002;23;20490;-90
2023/09/09 08:32:13;;;;;;;4.87;4.47;;;24.90;90.60;;;;;;6187313;23;20438;-95
2023/09/09 08:34:41;;;;;;;4.37;4.07;;;24.90;90.50;;;;;;6186643;23;20403;-90
2023/09/09 08:37:08;;;;;;;4.03;3.67;;;24.90;90.60;;;;;;6189011;23;20973;-90
2023/09/09 08:39:38;;;;;;;4.67;4.17;;;24.90;90.50;;;;;;6187710;23;20427;-96
2023/09/09 08:42:16;;;;;;;4.83;4.43;;;24.90;90.50;;;;;;6185916;23;20403;-95
2023/09/09 08:44:59;;;;;;;4.63;4.23;;;24.90;90.70;;;;;;6186084;23;20431;-94
2023/09/09 08:47:29;;;;;;;4.30;3.90;;;24.90;90.70;;;;;;6186336;23;20419;-94
2023/09/09 08:50:01;;;;;;;4.87;4.57;;;24.80;90.60;;;;;;6186832;23;20426;-94
2023/09/09 08:55:50;;;;;;;4.47;4.17;;;24.90;90.70;;;;;;6186104;23;20434;-94
2023/09/09 08:58:17;;;;;;;4.10;3.80;;;24.90;90.70;;;;;;6185713;23;20406;-93
2023/09/09 09:00:47;;;;;;;4.50;4.20;;;24.90;90.60;;;;;;6185712;23;20501;-94
2023/09/09 09:03:14;;;;;;;4.70;4.30;;;24.90;90.60;;;;;;6186125;23;20430;-94
2023/09/09 09:05:43;;;;;;;4.37;4.07;;;24.90;90.60;;;;;;6186445;23;20489;-95
2023/09/09 09:08:10;;;;;;;4.10;3.80;;;24.90;90.50;;;;;;6187664;23;20934;-93
2023/09/09 09:10:40;;;;;;;4.50;4.10;;;24.90;90.80;;;;;;6185896;23;20454;-94
2023/09/09 09:13:07;;;;;;;5.00;4.03;;;24.90;90.70;;;;;;6160744;23;20443;-93
2023/09/09 09:15:36;;;;;;;5.53;3.20;;;24.90;90.60;;;;;;6186524;23;20419;-93
2023/09/09 09:18:04;;;;;;;4.57;4.27;;;24.90;90.60;;;;;;6186016;23;20486;-93
2023/09/09 09:20:33;;;;;;;4.43;4.07;;;24.90;90.60;;;;;;6185814;23;20407;-93
2023/09/09 09:23:02;;;;;;;4.20;3.80;;;24.90;90.60;;;;;;6186068;23;20737;-93
2023/09/09 09:25:29;;;;;;;4.20;3.80;;;24.90;90.60;;;;;;6185849;23;20411;-93
2023/09/09 09:27:59;;;;;;;3.80;3.50;;;24.90;90.60;;;;;;6186157;23;20498;-93
2023/09/09 09:30:34;;;;;;;3.53;3.33;;;24.90;90.50;;;;;;6186605;23;20445;-91
2023/09/09 09:33:01;;;;;;;4.37;4.00;;;24.90;90.50;;;;;;6186838;23;20465;-90
2023/09/09 09:35:31;;;;;;;4.30;4.00;;;24.90;90.60;;;;;;6171178;23;20450;-93
2023/09/09 09:37:59;;;;;;;4.03;3.63;;;25.00;90.60;;;;;;6157513;23;20802;-91
2023/09/09 09:40:27;;;;;;;3.70;3.50;;;25.00;90.60;;;;;;6158095;23;20427;-88
2023/09/09 09:42:55;;;;;;;7.63;3.87;;;25.00;90.80;;;;;;6158477;23;20411;-95
2023/09/09 09:45:24;;;;;;;4.40;4.00;;;24.90;90.80;;;;;;6157914;23;20499;-96
2023/09/09 09:47:52;;;;;;;4.33;3.70;;;25.00;90.90;;;;;;6159082;23;20413;-96
2023/09/09 09:50:28;;;;;;;4.10;3.80;;;25.00;90.80;;;;;;6158935;23;20466;-96
2023/09/09 09:53:00;;;;;;;3.93;3.63;;;24.80;90.70;;;;;;6158668;23;20474;-92
2023/09/09 09:55:27;;;;;;;4.90;4.43;;;25.00;90.70;;;;;;6157618;23;20478;-92
2023/09/09 09:57:56;;;;;;;4.90;4.50;;;24.90;90.90;;;;;;6157562;23;20438;-92
2023/09/09 10:00:23;;;;;;;4.47;4.17;;;24.90;90.90;;;;;;6157181;23;20407;-94
2023/09/09 10:02:53;;;;;;;3.73;3.50;;;25.00;90.90;;;;;;6157747;23;20498;-92
2023/09/09 10:05:36;;;;;;;4.73;3.60;;;25.00;90.80;;;;;;6161383;23;20391;-95
2023/09/09 10:08:21;;;;;;;3.93;3.63;;;25.00;90.70;;;;;;6165016;23;20977;-91
2023/09/09 10:11:25;;;;;;;5.20;3.90;;;25.00;90.80;;;;;;6200047;23;20501;-93
2023/09/09 10:14:07;;;;;;;4.40;3.90;;;25.00;90.80;;;;;;6203598;23;20526;-91
2023/09/09 10:16:35;;;;;;;4.17;3.80;;;25.00;90.80;;;;;;6193732;23;20418;-91
2023/09/09 10:19:03;;;;;;;6.13;3.80;;;25.00;90.90;;;;;;6192081;23;20427;-96
2023/09/09 10:21:34;;;;;;;4.07;3.67;;;25.00;91.00;;;;;;6191891;23;20403;-91
2023/09/09 10:24:06;;;;;;;5.37;3.77;;;25.00;91.00;;;;;;6193165;23;20406;-92
2023/09/09 10:26:38;;;;;;;3.77;3.47;;;25.00;90.90;;;;;;6192200;23;20387;-92
2023/09/09 10:29:07;;;;;;;4.03;3.73;;;25.00;90.90;;;;;;6197776;23;20414;-92
2023/09/09 10:31:36;;;;;;;4.60;4.20;;;25.00;90.80;;;;;;6190874;23;20462;-91
2023/09/09 10:34:05;;;;;;;3.97;3.67;;;25.00;90.80;;;;;;6192392;23;20485;-94
2023/09/09 10:36:33;;;;;;;4.90;3.87;;;25.00;90.90;;;;;;6191945;23;20463;-92
2023/09/09 10:42:00;;;;;;;4.13;3.93;;;25.00;91.00;;;;;;6191225;23;20425;-92
2023/09/09 10:44:27;;;;;;;3.23;3.03;;;25.00;91.00;;;;;;6196405;23;20413;-92
2023/09/09 10:46:56;;;;;;;3.57;3.30;;;25.00;91.00;;;;;;6189723;23;20402;-92
2023/09/09 10:49:32;;;;;;;4.33;3.70;;;25.00;90.90;;;;;;6192350;23;20403;-92
2023/09/09 10:51:59;;;;;;;4.00;3.73;;;25.00;90.90;;;;;;6189935;23;20721;-86
2023/09/09 10:54:28;;;;;;;4.10;3.70;;;25.00;91.00;;;;;;6190694;23;20435;-86
2023/09/09 10:57:02;;;;;;;4.57;4.17;;;25.00;91.10;;;;;;6185752;23;20450;-88
2023/09/09 10:59:30;;;;;;;6.70;4.10;;;25.00;91.10;;;;;;6199331;23;20445;-87
2023/09/09 11:02:11;;;;;;;4.23;3.83;;;25.00;91.10;;;;;;6190503;23;20457;-88
2023/09/09 11:04:39;;;;;;;3.53;3.27;;;25.00;91.10;;;;;;6187815;23;20453;-87
2023/09/09 11:07:07;;;;;;;4.10;3.80;;;25.00;91.10;;;;;;6187792;23;20458;-88
2023/09/09 11:09:34;;;;;;;4.07;3.73;;;25.00;91.20;;;;;;6186822;23;20422;-88
2023/09/09 11:12:11;;;;;;;4.20;3.90;;;25.00;91.20;;;;;;6186068;23;20399;-88
2023/09/09 11:14:44;;;;;;;5.33;4.83;;;25.10;91.40;;;;;;6186928;23;20188;-89
2023/09/09 11:17:11;;;;;;;5.80;4.57;;;25.00;91.20;;;;;;6188019;23;20728;-92
2023/09/09 11:19:38;;;;;;;14.50;8.03;;;25.00;91.50;;;;;;6186966;23;20478;-89
2023/09/09 11:22:08;;;;;;;7.47;6.77;;;25.10;91.30;;;;;;6186781;23;20797;-89
2023/09/09 11:24:35;;;;;;;11.63;8.87;;;25.00;91.20;;;;;;6186737;23;20406;-88
2023/09/09 11:27:02;;;;;;;13.00;8.80;;;25.10;91.40;;;;;;6186753;23;20486;-87
2023/09/09 11:29:31;;;;;;;12.90;6.87;;;25.10;91.30;;;;;;6186749;23;20403;-87
2023/09/09 11:31:58;;;;;;;14.53;7.57;;;25.00;91.40;;;;;;6186399;23;20409;-87
2023/09/09 11:34:32;;;;;;;10.47;7.53;;;25.10;91.80;;;;;;6185967;23;20456;-87
2023/09/09 11:37:00;;;;;;;8.07;6.40;;;25.10;91.50;;;;;;6186531;23;20403;-88
2023/09/09 11:39:27;;;;;;;10.73;7.37;;;25.00;91.50;;;;;;6186464;23;20506;-88
2023/09/09 11:41:54;;;;;;;10.30;7.13;;;25.00;91.50;;;;;;6186155;23;20874;-87
2023/09/09 11:44:20;;;;;;;11.87;8.67;;;25.00;91.60;;;;;;6186272;23;20485;-88
2023/09/09 11:46:49;;;;;;;15.00;7.80;;;25.10;91.60;;;;;;6186238;23;20481;-88
2023/09/09 11:49:17;;;;;;;14.70;8.97;;;25.00;91.50;;;;;;6186402;23;20395;-87
2023/09/09 11:51:44;;;;;;;13.00;8.37;;;25.00;91.60;;;;;;6185863;23;20482;-87
2023/09/09 11:54:12;;;;;;;14.23;8.00;;;25.10;91.60;;;;;;6186399;23;20465;-87
2023/09/09 11:56:39;;;;;;;16.47;8.00;;;25.10;91.60;;;;;;6186250;23;20429;-87
2023/09/09 11:59:10;;;;;;;16.57;8.97;;;25.10;91.60;;;;;;6186121;23;20417;-87
2023/09/09 12:01:42;;;;;;;13.80;8.67;;;25.10;91.60;;;;;;6186116;23;20414;-87
2023/09/09 12:04:11;;;;;;;12.50;8.47;;;25.10;91.60;;;;;;6186294;23;20399;-87
2023/09/09 12:06:39;;;;;;;16.70;8.63;;;25.10;91.60;;;;;;6186157;23;20501;-87
2023/09/09 12:09:07;;;;;;;14.00;8.23;;;25.10;91.60;;;;;;6186150;23;20429;-88
2023/09/09 12:11:35;;;;;;;15.37;7.30;;;25.10;91.60;;;;;;6185273;23;20841;-88
2023/09/09 12:14:02;;;;;;;16.10;8.97;;;25.10;91.50;;;;;;6185227;23;20984;-87
2023/09/09 12:16:30;;;;;;;13.97;7.60;;;25.10;91.90;;;;;;6185823;23;20961;-88
2023/09/09 12:18:57;;;;;;;16.77;6.80;;;25.10;91.90;;;;;;6186266;23;20406;-87
2023/09/09 12:21:25;;;;;;;16.47;8.30;;;25.10;91.60;;;;;;6186084;23;20401;-88
2023/09/09 12:23:57;;;;;;;12.27;7.03;;;25.10;91.70;;;;;;6185967;23;20489;-88
2023/09/09 12:26:24;;;;;;;11.30;7.60;;;25.20;91.80;;;;;;6188486;23;20445;-88
2023/09/09 12:29:06;;;;;;;11.60;6.83;;;25.20;91.80;;;;;;6184598;23;20974;-87
2023/09/09 12:31:33;;;;;;;8.30;6.00;;;25.20;91.80;;;;;;6185301;23;20403;-87
2023/09/09 12:34:00;;;;;;;8.63;6.90;;;25.20;91.80;;;;;;6185328;23;20439;-87
2023/09/09 12:36:34;;;;;;;9.90;6.20;;;25.10;91.70;;;;;;6185266;23;20399;-89
2023/09/09 12:39:02;;;;;;;8.07;5.70;;;25.10;91.60;;;;;;6185547;23;20426;-88
2023/09/09 12:41:29;;;;;;;12.23;6.40;;;25.10;91.60;;;;;;6185834;23;20399;-88
2023/09/09 12:43:55;;;;;;;12.37;6.27;;;25.10;91.50;;;;;;6185226;23;20402;-88
2023/09/09 12:46:27;;;;;;;7.43;6.43;;;25.10;91.60;;;;;;6185338;23;20481;-88
2023/09/09 12:48:55;;;;;;;11.00;6.30;;;25.10;91.60;;;;;;6185323;23;20390;-88
2023/09/09 12:51:24;;;;;;;9.53;6.70;;;25.10;91.60;;;;;;6185252;23;20398;-87
2023/09/09 12:53:52;;;;;;;8.93;6.30;;;25.10;91.60;;;;;;6185414;23;20847;-88
2023/09/09 12:56:20;;;;;;;8.37;5.67;;;25.10;91.60;;;;;;6185106;23;20427;-91
2023/09/09 12:58:46;;;;;;;9.90;6.43;;;25.10;91.60;;;;;;6185795;23;20486;-87
2023/09/09 13:01:14;;;;;;;9.70;6.20;;;25.10;91.60;;;;;;6185830;23;20403;-89